sensor_id;sensor_type;location;lat;lon;timestamp;pressure;altitude;pressure_sealevel;temperature;humidity
9676;BME280;4876;42.656;23.292;2023-01-29T00:00:20;94406.47;;;-0.34;90.07
9676;BME280;4876;42.656;23.292;2023-01-29T00:02:47;94411.56;;;-0.39;90.08
9676;BME280;4876;42.656;23.292;2023-01-29T00:05:15;94409.84;;;-0.33;90.29
9676;BME280;4876;42.656;23.292;2023-01-29T00:07:42;94409.84;;;-0.33;89.90
9676;BME280;4876;42.656;23.292;2023-01-29T00:10:10;94395.78;;;-0.42;89.88
9676;BME280;4876;42.656;23.292;2023-01-29T00:12:37;94423.28;;;-0.31;90.39
9676;BME280;4876;42.656;23.292;2023-01-29T00:15:05;94421.09;;;-0.22;90.13
9676;BME280;4876;42.656;23.292;2023-01-29T00:17:32;94416.81;;;-0.34;89.78
9676;BME280;4876;42.656;23.292;2023-01-29T00:19:59;94412.50;;;-0.28;90.15
9676;BME280;4876;42.656;23.292;2023-01-29T00:22:29;94421.72;;;-0.32;89.74
9676;BME280;4876;42.656;23.292;2023-01-29T00:24:56;94427.75;;;-0.48;89.84
9676;BME280;4876;42.656;23.292;2023-01-29T00:27:22;94423.19;;;-0.41;90.96
9676;BME280;4876;42.656;23.292;2023-01-29T00:29:49;94424.56;;;-0.56;90.79
9676;BME280;4876;42.656;23.292;2023-01-29T00:32:34;94425.38;;;-0.50;90.45
9676;BME280;4876;42.656;23.292;2023-01-29T00:35:00;94427.25;;;-0.45;90.68
9676;BME280;4876;42.656;23.292;2023-01-29T00:37:29;94391.16;;;-0.79;90.57
9676;BME280;4876;42.656;23.292;2023-01-29T00:39:56;94404.44;;;-0.70;91.34
9676;BME280;4876;42.656;23.292;2023-01-29T00:42:23;94432.41;;;-0.45;91.25
9676;BME280;4876;42.656;23.292;2023-01-29T00:45:08;94429.28;;;-0.47;91.62
9676;BME280;4876;42.656;23.292;2023-01-29T00:47:35;94429.38;;;-0.42;91.58
9676;BME280;4876;42.656;23.292;2023-01-29T00:50:04;94422.56;;;-0.48;92.32
9676;BME280;4876;42.656;23.292;2023-01-29T00:52:33;94423.59;;;-0.49;92.04
9676;BME280;4876;42.656;23.292;2023-01-29T00:55:02;94433.13;;;-0.50;92.27
9676;BME280;4876;42.656;23.292;2023-01-29T00:57:30;94426.19;;;-0.49;92.18
9676;BME280;4876;42.656;23.292;2023-01-29T00:59:58;94423.75;;;-0.56;92.53
9676;BME280;4876;42.656;23.292;2023-01-29T01:02:25;94427.25;;;-0.45;93.15
9676;BME280;4876;42.656;23.292;2023-01-29T01:05:11;94421.78;;;-0.49;92.65
9676;BME280;4876;42.656;23.292;2023-01-29T01:07:44;94423.63;;;-0.44;93.11
9676;BME280;4876;42.656;23.292;2023-01-29T01:10:13;94430.59;;;-0.45;93.51
9676;BME280;4876;42.656;23.292;2023-01-29T01:12:51;94422.97;;;-0.57;92.98
9676;BME280;4876;42.656;23.292;2023-01-29T01:15:19;94424.16;;;-0.64;93.26
9676;BME280;4876;42.656;23.292;2023-01-29T01:17:46;94425.84;;;-0.53;93.72
9676;BME280;4876;42.656;23.292;2023-01-29T01:20:14;94422.50;;;-0.53;93.88
9676;BME280;4876;42.656;23.292;2023-01-29T01:22:41;94420.53;;;-0.63;93.89
9676;BME280;4876;42.656;23.292;2023-01-29T01:25:09;94424.75;;;-0.57;94.20
9676;BME280;4876;42.656;23.292;2023-01-29T01:27:36;94422.75;;;-0.55;93.86
9676;BME280;4876;42.656;23.292;2023-01-29T01:30:08;94421.41;;;-0.58;94.01
9676;BME280;4876;42.656;23.292;2023-01-29T01:32:35;94422.94;;;-0.40;94.22
9676;BME280;4876;42.656;23.292;2023-01-29T01:35:03;94426.78;;;-0.42;93.71
9676;BME280;4876;42.656;23.292;2023-01-29T01:37:30;94423.63;;;-0.44;93.64
9676;BME280;4876;42.656;23.292;2023-01-29T01:39:57;94426.28;;;-0.39;93.76
9676;BME280;4876;42.656;23.292;2023-01-29T01:42:28;94423.97;;;-0.58;93.24
9676;BME280;4876;42.656;23.292;2023-01-29T01:45:00;94416.84;;;-0.50;94.10
9676;BME280;4876;42.656;23.292;2023-01-29T01:47:33;94425.31;;;-0.55;94.34
9676;BME280;4876;42.656;23.292;2023-01-29T01:50:06;94427.13;;;-0.56;93.84
9676;BME280;4876;42.656;23.292;2023-01-29T01:52:38;94432.41;;;-0.45;93.94
9676;BME280;4876;42.656;23.292;2023-01-29T01:55:07;94429.38;;;-0.42;93.32
9676;BME280;4876;42.656;23.292;2023-01-29T01:57:36;94430.94;;;-0.41;93.32
9676;BME280;4876;42.656;23.292;2023-01-29T02:00:09;94433.38;;;-0.51;94.07
9676;BME280;4876;42.656;23.292;2023-01-29T02:02:38;94442.47;;;-0.49;93.68
9676;BME280;4876;42.656;23.292;2023-01-29T02:05:25;94421.19;;;-0.73;94.68
9676;BME280;4876;42.656;23.292;2023-01-29T02:08:10;94441.09;;;-0.51;94.76
9676;BME280;4876;42.656;23.292;2023-01-29T02:10:55;94443.22;;;-0.48;94.76
9676;BME280;4876;42.656;23.292;2023-01-29T02:13:23;94438.34;;;-0.45;95.11
9676;BME280;4876;42.656;23.292;2023-01-29T02:15:50;94440.09;;;-0.50;96.54
9676;BME280;4876;42.656;23.292;2023-01-29T02:18:18;94437.13;;;-0.59;97.14
9676;BME280;4876;42.656;23.292;2023-01-29T02:20:51;94433.13;;;-0.50;97.27
9676;BME280;4876;42.656;23.292;2023-01-29T02:23:42;94450.41;;;-0.50;97.64
9676;BME280;4876;42.656;23.292;2023-01-29T02:26:24;94449.72;;;-0.63;98.57
9676;BME280;4876;42.656;23.292;2023-01-29T02:28:58;94446.53;;;-0.70;98.72
9676;BME280;4876;42.656;23.292;2023-01-29T02:31:53;94451.38;;;-0.57;99.17
9676;BME280;4876;42.656;23.292;2023-01-29T02:34:33;94448.75;;;-0.62;97.84
9676;BME280;4876;42.656;23.292;2023-01-29T02:37:25;94459.81;;;-0.44;97.52
9676;BME280;4876;42.656;23.292;2023-01-29T02:40:00;94449.69;;;-0.68;97.84
9676;BME280;4876;42.656;23.292;2023-01-29T02:42:34;94445.38;;;-0.79;99.45
9676;BME280;4876;42.656;23.292;2023-01-29T02:45:09;94465.19;;;-0.68;100.00
9676;BME280;4876;42.656;23.292;2023-01-29T02:47:41;94472.19;;;-0.63;100.00
9676;BME280;4876;42.656;23.292;2023-01-29T02:50:15;94473.75;;;-0.62;100.00
9676;BME280;4876;42.656;23.292;2023-01-29T02:52:45;94466.25;;;-0.64;100.00
9676;BME280;4876;42.656;23.292;2023-01-29T02:55:23;94470.47;;;-0.58;100.00
9676;BME280;4876;42.656;23.292;2023-01-29T02:57:55;94464.91;;;-0.49;100.00
9676;BME280;4876;42.656;23.292;2023-01-29T03:00:27;94465.31;;;-0.58;100.00
9676;BME280;4876;42.656;23.292;2023-01-29T03:02:59;94471.94;;;-0.45;100.00
9676;BME280;4876;42.656;23.292;2023-01-29T03:05:31;94470.38;;;-0.46;100.00
9676;BME280;4876;42.656;23.292;2023-01-29T03:08:03;94465.75;;;-0.44;99.92
9676;BME280;4876;42.656;23.292;2023-01-29T03:10:36;94459.34;;;-0.41;99.29
9676;BME280;4876;42.656;23.292;2023-01-29T03:13:09;94464.91;;;-0.49;98.71
9676;BME280;4876;42.656;23.292;2023-01-29T03:15:42;94458.41;;;-0.52;99.27
9676;BME280;4876;42.656;23.292;2023-01-29T03:18:14;94390.56;;;-0.86;98.49
9676;BME280;4876;42.656;23.292;2023-01-29T03:20:46;94464.09;;;-0.33;98.50
9676;BME280;4876;42.656;23.292;2023-01-29T03:23:18;94474.34;;;-0.38;97.74
9676;BME280;4876;42.656;23.292;2023-01-29T03:25:59;94469.44;;;-0.40;96.33
9676;BME280;4876;42.656;23.292;2023-01-29T03:28:44;94481.22;;;-0.27;94.79
9676;BME280;4876;42.656;23.292;2023-01-29T03:31:31;94472.94;;;-0.29;93.93
9676;BME280;4876;42.656;23.292;2023-01-29T03:34:17;94472.19;;;-0.46;93.17
9676;BME280;4876;42.656;23.292;2023-01-29T03:36:51;94436.66;;;-0.56;92.89
9676;BME280;4876;42.656;23.292;2023-01-29T03:39:21;94476.97;;;-0.16;90.85
9676;BME280;4876;42.656;23.292;2023-01-29T03:41:52;94477.16;;;-0.23;89.76
9676;BME280;4876;42.656;23.292;2023-01-29T03:44:29;94478.56;;;-0.32;90.01
9676;BME280;4876;42.656;23.292;2023-01-29T03:47:07;94478.28;;;-0.36;90.53
9676;BME280;4876;42.656;23.292;2023-01-29T03:49:48;94473.56;;;-0.39;90.60
9676;BME280;4876;42.656;23.292;2023-01-29T03:52:22;94465.47;;;-0.47;91.96
9676;BME280;4876;42.656;23.292;2023-01-29T03:54:57;94475.94;;;-0.37;92.53
9676;BME280;4876;42.656;23.292;2023-01-29T03:57:30;94480.28;;;-0.21;92.56
9676;BME280;4876;42.656;23.292;2023-01-29T04:00:05;94477.16;;;-0.23;92.08
9676;BME280;4876;42.656;23.292;2023-01-29T04:02:42;94472.78;;;-0.22;92.42
9676;BME280;4876;42.656;23.292;2023-01-29T04:05:15;94469.34;;;-0.28;92.43
9676;BME280;4876;42.656;23.292;2023-01-29T04:07:45;94476.06;;;-0.27;93.17
9676;BME280;4876;42.656;23.292;2023-01-29T04:10:16;94462.72;;;-0.58;93.46
9676;BME280;4876;42.656;23.292;2023-01-29T04:12:48;94475.59;;;-0.24;94.30
9676;BME280;4876;42.656;23.292;2023-01-29T04:15:18;94487.78;;;-0.19;93.86
9676;BME280;4876;42.656;23.292;2023-01-29T04:17:49;94489.41;;;-0.35;93.78
9676;BME280;4876;42.656;23.292;2023-01-29T04:20:17;94479.81;;;-0.18;93.15
9676;BME280;4876;42.656;23.292;2023-01-29T04:22:45;94492.06;;;-0.30;93.11
9676;BME280;4876;42.656;23.292;2023-01-29T04:25:20;94489.16;;;-0.34;93.22
9676;BME280;4876;42.656;23.292;2023-01-29T04:27:56;94485.78;;;-0.34;92.58
9676;BME280;4876;42.656;23.292;2023-01-29T04:30:34;94481.22;;;-0.27;92.35
9676;BME280;4876;42.656;23.292;2023-01-29T04:33:13;94487.75;;;-0.24;92.33
9676;BME280;4876;42.656;23.292;2023-01-29T04:35:54;94484.75;;;-0.33;93.15
9676;BME280;4876;42.656;23.292;2023-01-29T04:38:39;94497.69;;;-0.33;93.21
9676;BME280;4876;42.656;23.292;2023-01-29T04:41:12;94494.63;;;-0.30;92.83
9676;BME280;4876;42.656;23.292;2023-01-29T04:43:44;94499.72;;;-0.35;93.58
9676;BME280;4876;42.656;23.292;2023-01-29T04:46:16;94495.59;;;-0.36;93.87
9676;BME280;4876;42.656;23.292;2023-01-29T04:48:56;94496.19;;;-0.29;93.19
9676;BME280;4876;42.656;23.292;2023-01-29T04:51:33;94487.94;;;-0.26;93.31
9676;BME280;4876;42.656;23.292;2023-01-29T04:54:07;94494.06;;;-0.32;92.80
9676;BME280;4876;42.656;23.292;2023-01-29T04:56:42;94495.09;;;-0.33;92.12
9676;BME280;4876;42.656;23.292;2023-01-29T04:59:17;94502.84;;;-0.33;91.74
9676;BME280;4876;42.656;23.292;2023-01-29T05:01:47;94496.22;;;-0.46;91.63
9676;BME280;4876;42.656;23.292;2023-01-29T05:04:18;94507.84;;;-0.27;91.58
9676;BME280;4876;42.656;23.292;2023-01-29T05:06:46;94494.94;;;-0.27;91.29
9676;BME280;4876;42.656;23.292;2023-01-29T05:09:15;94503.94;;;-0.29;90.59
9676;BME280;4876;42.656;23.292;2023-01-29T05:11:43;94497.22;;;-0.30;90.73
9676;BME280;4876;42.656;23.292;2023-01-29T05:14:12;94509.03;;;-0.34;91.04
9676;BME280;4876;42.656;23.292;2023-01-29T05:16:44;94506.72;;;-0.14;91.55
9676;BME280;4876;42.656;23.292;2023-01-29T05:19:13;94509.78;;;0.00;90.56
9676;BME280;4876;42.656;23.292;2023-01-29T05:21:43;94507.69;;;-0.20;90.45
9676;BME280;4876;42.656;23.292;2023-01-29T05:24:13;94512.91;;;-0.15;90.53
9676;BME280;4876;42.656;23.292;2023-01-29T05:26:41;94517.56;;;-0.34;91.16
9676;BME280;4876;42.656;23.292;2023-01-29T05:29:25;94517.56;;;-0.34;90.89
9676;BME280;4876;42.656;23.292;2023-01-29T05:31:52;94519.13;;;-0.33;91.64
9676;BME280;4876;42.656;23.292;2023-01-29T05:34:19;94520.41;;;-0.35;91.50
9676;BME280;4876;42.656;23.292;2023-01-29T05:36:47;94519.91;;;-0.32;91.42
9676;BME280;4876;42.656;23.292;2023-01-29T05:39:14;94519.44;;;-0.29;91.39
9676;BME280;4876;42.656;23.292;2023-01-29T05:41:41;94519.75;;;-0.25;90.96
9676;BME280;4876;42.656;23.292;2023-01-29T05:44:08;94525.56;;;-0.18;90.95
9676;BME280;4876;42.656;23.292;2023-01-29T05:46:35;94528.44;;;-0.15;91.02
9676;BME280;4876;42.656;23.292;2023-01-29T05:49:03;94527.28;;;-0.24;91.14
9676;BME280;4876;42.656;23.292;2023-01-29T05:51:30;94532.97;;;-0.22;91.61
9676;BME280;4876;42.656;23.292;2023-01-29T05:53:58;94534.09;;;-0.18;91.77
9676;BME280;4876;42.656;23.292;2023-01-29T05:56:25;94532.63;;;-0.09;91.67
9676;BME280;4876;42.656;23.292;2023-01-29T05:58:52;94537.91;;;-0.20;91.47
9676;BME280;4876;42.656;23.292;2023-01-29T06:01:20;94540.72;;;-0.22;92.46
9676;BME280;4876;42.656;23.292;2023-01-29T06:03:48;94543.22;;;-0.10;92.35
9676;BME280;4876;42.656;23.292;2023-01-29T06:06:15;94541.84;;;-0.18;92.02
9676;BME280;4876;42.656;23.292;2023-01-29T06:08:42;94525.84;;;-0.32;92.79
9676;BME280;4876;42.656;23.292;2023-01-29T06:11:11;94541.84;;;-0.18;92.83
9676;BME280;4876;42.656;23.292;2023-01-29T06:13:39;94503.72;;;-0.44;92.28
9676;BME280;4876;42.656;23.292;2023-01-29T06:16:07;94556.38;;;-0.12;92.63
9676;BME280;4876;42.656;23.292;2023-01-29T06:18:35;94530.28;;;-0.49;93.21
9676;BME280;4876;42.656;23.292;2023-01-29T06:21:03;94565.47;;;-0.26;94.34
9676;BME280;4876;42.656;23.292;2023-01-29T06:23:31;94563.38;;;-0.29;94.48
9676;BME280;4876;42.656;23.292;2023-01-29T06:25:58;94569.06;;;-0.27;95.07
9676;BME280;4876;42.656;23.292;2023-01-29T06:28:27;94574.25;;;-0.27;95.45
9676;BME280;4876;42.656;23.292;2023-01-29T06:30:56;94571.97;;;-0.23;96.09
9676;BME280;4876;42.656;23.292;2023-01-29T06:33:24;94574.50;;;-0.12;95.82
9676;BME280;4876;42.656;23.292;2023-01-29T06:35:55;94581.81;;;-0.04;95.21
9676;BME280;4876;42.656;23.292;2023-01-29T06:38:22;94583.72;;;0.23;93.83
9676;BME280;4876;42.656;23.292;2023-01-29T06:40:49;94585.97;;;0.14;93.17
9676;BME280;4876;42.656;23.292;2023-01-29T06:43:15;94585.91;;;-0.08;93.37
9676;BME280;4876;42.656;23.292;2023-01-29T06:45:47;94591.75;;;0.05;93.49
9676;BME280;4876;42.656;23.292;2023-01-29T06:48:14;94590.28;;;0.09;94.08
9676;BME280;4876;42.656;23.292;2023-01-29T06:50:41;94589.25;;;0.10;93.42
9676;BME280;4876;42.656;23.292;2023-01-29T06:53:08;94587.84;;;0.19;93.35
9676;BME280;4876;42.656;23.292;2023-01-29T06:55:35;94591.38;;;0.35;93.00
9676;BME280;4876;42.656;23.292;2023-01-29T06:58:04;94586.22;;;0.35;91.50
9676;BME280;4876;42.656;23.292;2023-01-29T07:00:31;94594.84;;;0.40;95.75
9676;BME280;4876;42.656;23.292;2023-01-29T07:02:59;94590.19;;;0.42;95.01
9676;BME280;4876;42.656;23.292;2023-01-29T07:05:26;94591.72;;;0.38;92.47
9676;BME280;4876;42.656;23.292;2023-01-29T07:07:53;94591.03;;;0.26;91.15
9676;BME280;4876;42.656;23.292;2023-01-29T07:10:20;94605.94;;;0.19;91.36
9676;BME280;4876;42.656;23.292;2023-01-29T07:12:47;94610.81;;;0.37;91.78
9676;BME280;4876;42.656;23.292;2023-01-29T07:15:14;94591.59;;;0.11;91.45
9676;BME280;4876;42.656;23.292;2023-01-29T07:17:44;94612.09;;;0.35;91.55
9676;BME280;4876;42.656;23.292;2023-01-29T07:20:12;94616.47;;;0.34;91.82
9676;BME280;4876;42.656;23.292;2023-01-29T07:22:39;94622.25;;;0.41;91.51
9676;BME280;4876;42.656;23.292;2023-01-29T07:25:07;94622.19;;;0.36;90.39
9676;BME280;4876;42.656;23.292;2023-01-29T07:27:34;94619.91;;;0.40;90.43
9676;BME280;4876;42.656;23.292;2023-01-29T07:30:00;94626.41;;;0.42;91.02
9676;BME280;4876;42.656;23.292;2023-01-29T07:32:27;94631.34;;;0.44;89.91
9676;BME280;4876;42.656;23.292;2023-01-29T07:34:54;94626.31;;;0.37;90.24
9676;BME280;4876;42.656;23.292;2023-01-29T07:37:22;94622.28;;;0.63;90.22
9676;BME280;4876;42.656;23.292;2023-01-29T07:39:49;94626.13;;;0.61;90.04
9676;BME280;4876;42.656;23.292;2023-01-29T07:42:16;94631.50;;;0.37;89.88
9676;BME280;4876;42.656;23.292;2023-01-29T07:44:43;94631.22;;;0.56;90.83
9676;BME280;4876;42.656;23.292;2023-01-29T07:47:10;94636.97;;;0.58;91.10
9676;BME280;4876;42.656;23.292;2023-01-29T07:49:37;94635.97;;;0.42;90.98
9676;BME280;4876;42.656;23.292;2023-01-29T07:52:04;94638.88;;;0.45;90.75
9676;BME280;4876;42.656;23.292;2023-01-29T07:54:32;94644.84;;;0.46;90.35
9676;BME280;4876;42.656;23.292;2023-01-29T07:56:59;94639.91;;;0.44;90.82
9676;BME280;4876;42.656;23.292;2023-01-29T07:59:26;94644.34;;;0.49;90.07
9676;BME280;4876;42.656;23.292;2023-01-29T08:01:52;94633.66;;;0.62;90.06
9676;BME280;4876;42.656;23.292;2023-01-29T08:04:19;94646.38;;;0.64;89.34
9676;BME280;4876;42.656;23.292;2023-01-29T08:06:46;94645.88;;;0.67;89.54
9676;BME280;4876;42.656;23.292;2023-01-29T08:09:13;94644.47;;;0.59;89.15
9676;BME280;4876;42.656;23.292;2023-01-29T08:11:41;94653.13;;;0.48;89.35
9676;BME280;4876;42.656;23.292;2023-01-29T08:14:08;94651.88;;;0.50;89.98
9676;BME280;4876;42.656;23.292;2023-01-29T08:16:34;94648.81;;;0.53;91.37
9676;BME280;4876;42.656;23.292;2023-01-29T08:19:01;94639.94;;;0.49;91.53
9676;BME280;4876;42.656;23.292;2023-01-29T08:21:28;94626.97;;;0.44;90.72
9676;BME280;4876;42.656;23.292;2023-01-29T08:23:55;94648.00;;;0.70;90.04
9676;BME280;4876;42.656;23.292;2023-01-29T08:26:22;94643.28;;;0.67;88.97
9676;BME280;4876;42.656;23.292;2023-01-29T08:28:52;94648.13;;;0.41;88.31
9676;BME280;4876;42.656;23.292;2023-01-29T08:31:19;94655.44;;;0.44;88.97
9676;BME280;4876;42.656;23.292;2023-01-29T08:33:45;94658.47;;;0.41;88.09
9676;BME280;4876;42.656;23.292;2023-01-29T08:36:12;94659.28;;;0.25;88.78
9676;BME280;4876;42.656;23.292;2023-01-29T08:38:39;94666.94;;;0.37;88.26
9676;BME280;4876;42.656;23.292;2023-01-29T08:41:06;94667.09;;;0.30;88.17
9676;BME280;4876;42.656;23.292;2023-01-29T08:43:34;94662.88;;;0.41;88.02
9676;BME280;4876;42.656;23.292;2023-01-29T08:46:04;94656.84;;;0.35;87.58
9676;BME280;4876;42.656;23.292;2023-01-29T08:48:31;94675.47;;;0.37;88.01
9676;BME280;4876;42.656;23.292;2023-01-29T08:50:58;94673.03;;;0.47;88.50
9676;BME280;4876;42.656;23.292;2023-01-29T08:53:25;94674.59;;;0.48;88.29
9676;BME280;4876;42.656;23.292;2023-01-29T08:55:51;94677.22;;;0.32;88.13
9676;BME280;4876;42.656;23.292;2023-01-29T08:58:18;94681.84;;;0.30;88.75
9676;BME280;4876;42.656;23.292;2023-01-29T09:00:45;94683.38;;;0.47;88.55
9676;BME280;4876;42.656;23.292;2023-01-29T09:03:13;94683.56;;;0.41;88.25
9676;BME280;4876;42.656;23.292;2023-01-29T09:05:40;94683.47;;;0.52;88.37
9676;BME280;4876;42.656;23.292;2023-01-29T09:08:08;94684.88;;;0.43;87.83
9676;BME280;4876;42.656;23.292;2023-01-29T09:10:35;94691.69;;;0.49;88.00
9676;BME280;4876;42.656;23.292;2023-01-29T09:13:02;94690.44;;;0.52;87.93
9676;BME280;4876;42.656;23.292;2023-01-29T09:15:29;94685.34;;;0.57;87.76
9676;BME280;4876;42.656;23.292;2023-01-29T09:17:56;94684.94;;;0.65;87.59
9676;BME280;4876;42.656;23.292;2023-01-29T09:20:24;94685.28;;;0.52;87.13
9676;BME280;4876;42.656;23.292;2023-01-29T09:22:51;94684.56;;;0.57;87.09
9676;BME280;4876;42.656;23.292;2023-01-29T09:25:20;94679.50;;;0.67;86.96
9676;BME280;4876;42.656;23.292;2023-01-29T09:27:47;94681.56;;;0.65;86.58
9676;BME280;4876;42.656;23.292;2023-01-29T09:30:15;94681.31;;;0.66;86.36
9676;BME280;4876;42.656;23.292;2023-01-29T09:32:42;94678.91;;;0.60;86.43
9676;BME280;4876;42.656;23.292;2023-01-29T09:35:08;94677.44;;;0.47;86.77
9676;BME280;4876;42.656;23.292;2023-01-29T09:37:37;94675.09;;;0.45;86.53
9676;BME280;4876;42.656;23.292;2023-01-29T09:40:04;94675.56;;;0.42;87.48
9676;BME280;4876;42.656;23.292;2023-01-29T09:42:36;94670.53;;;0.52;87.18
9676;BME280;4876;42.656;23.292;2023-01-29T09:45:11;94672.09;;;0.53;87.29
9676;BME280;4876;42.656;23.292;2023-01-29T09:47:40;94667.53;;;0.61;87.42
9676;BME280;4876;42.656;23.292;2023-01-29T09:50:13;94663.00;;;0.51;86.57
9676;BME280;4876;42.656;23.292;2023-01-29T09:52:46;94656.28;;;0.50;86.96
9676;BME280;4876;42.656;23.292;2023-01-29T09:55:20;94666.50;;;0.62;86.88
9676;BME280;4876;42.656;23.292;2023-01-29T09:57:50;94665.56;;;0.90;86.40
9676;BME280;4876;42.656;23.292;2023-01-29T10:00:23;94662.19;;;0.89;85.32
9676;BME280;4876;42.656;23.292;2023-01-29T10:05:58;94660.19;;;0.52;86.47
9676;BME280;4876;42.656;23.292;2023-01-29T10:08:39;94662.00;;;0.74;86.49
9676;BME280;4876;42.656;23.292;2023-01-29T10:11:21;94659.47;;;0.79;85.95
9676;BME280;4876;42.656;23.292;2023-01-29T10:14:02;94654.72;;;0.71;85.76
9676;BME280;4876;42.656;23.292;2023-01-29T10:16:43;94654.66;;;0.66;86.49
9676;BME280;4876;42.656;23.292;2023-01-29T10:19:27;94648.88;;;0.59;86.34
9676;BME280;4876;42.656;23.292;2023-01-29T10:22:19;94638.19;;;0.33;87.50
9676;BME280;4876;42.656;23.292;2023-01-29T10:24:56;94650.34;;;0.33;87.42
9676;BME280;4876;42.656;23.292;2023-01-29T10:27:28;94646.28;;;0.20;88.57
9676;BME280;4876;42.656;23.292;2023-01-29T10:29:57;94637.59;;;0.26;88.93
9676;BME280;4876;42.656;23.292;2023-01-29T10:32:36;94632.50;;;0.14;88.96
9676;BME280;4876;42.656;23.292;2023-01-29T10:35:12;94639.69;;;0.29;89.42
9676;BME280;4876;42.656;23.292;2023-01-29T10:37:43;94634.91;;;0.38;89.44
9676;BME280;4876;42.656;23.292;2023-01-29T10:40:18;94627.44;;;0.41;89.08
9676;BME280;4876;42.656;23.292;2023-01-29T10:42:50;94628.81;;;0.49;88.75
9676;BME280;4876;42.656;23.292;2023-01-29T10:45:27;94633.56;;;0.35;88.75
9676;BME280;4876;42.656;23.292;2023-01-29T10:48:10;94632.44;;;0.48;89.11
9676;BME280;4876;42.656;23.292;2023-01-29T10:50:47;94628.88;;;0.32;88.93
9676;BME280;4876;42.656;23.292;2023-01-29T10:53:24;94636.91;;;0.36;88.98
9676;BME280;4876;42.656;23.292;2023-01-29T10:56:00;94637.44;;;0.54;88.81
9676;BME280;4876;42.656;23.292;2023-01-29T10:58:33;94631.47;;;0.54;88.13
9676;BME280;4876;42.656;23.292;2023-01-29T11:01:03;94629.66;;;0.54;88.61
9676;BME280;4876;42.656;23.292;2023-01-29T11:03:31;94622.81;;;0.65;88.58
9676;BME280;4876;42.656;23.292;2023-01-29T11:06:08;94625.28;;;0.77;88.13
9676;BME280;4876;42.656;23.292;2023-01-29T11:08:40;94629.03;;;0.64;88.06
9676;BME280;4876;42.656;23.292;2023-01-29T11:11:12;94621.31;;;0.47;88.21
9676;BME280;4876;42.656;23.292;2023-01-29T11:13:43;94618.72;;;0.47;89.35
9676;BME280;4876;42.656;23.292;2023-01-29T11:16:12;94617.47;;;0.50;89.70
9676;BME280;4876;42.656;23.292;2023-01-29T11:18:54;94621.63;;;0.51;89.69
9676;BME280;4876;42.656;23.292;2023-01-29T11:21:22;94610.91;;;0.64;89.06
9676;BME280;4876;42.656;23.292;2023-01-29T11:24:05;94611.25;;;0.73;88.29
9676;BME280;4876;42.656;23.292;2023-01-29T11:26:36;94605.69;;;0.81;88.05
9676;BME280;4876;42.656;23.292;2023-01-29T11:29:32;94607.44;;;0.75;87.76
9676;BME280;4876;42.656;23.292;2023-01-29T11:32:02;94602.72;;;0.72;87.38
9676;BME280;4876;42.656;23.292;2023-01-29T11:34:30;94598.63;;;0.54;87.78
9676;BME280;4876;42.656;23.292;2023-01-29T11:36:58;94593.66;;;0.70;87.65
9676;BME280;4876;42.656;23.292;2023-01-29T11:39:27;94585.84;;;0.92;87.35
9676;BME280;4876;42.656;23.292;2023-01-29T11:41:57;94581.69;;;1.13;86.18
9676;BME280;4876;42.656;23.292;2023-01-29T11:44:30;94581.94;;;0.89;85.79
9676;BME280;4876;42.656;23.292;2023-01-29T11:47:14;94574.13;;;0.84;86.74
9676;BME280;4876;42.656;23.292;2023-01-29T11:49:47;94539.63;;;0.78;86.53
9676;BME280;4876;42.656;23.292;2023-01-29T11:52:16;94571.13;;;1.19;85.67
9676;BME280;4876;42.656;23.292;2023-01-29T11:54:46;94569.22;;;1.10;85.04
9676;BME280;4876;42.656;23.292;2023-01-29T11:57:25;94569.22;;;1.10;85.39
9676;BME280;4876;42.656;23.292;2023-01-29T11:59:54;94574.66;;;0.86;86.37
9676;BME280;4876;42.656;23.292;2023-01-29T12:02:25;94565.25;;;1.02;86.00
9676;BME280;4876;42.656;23.292;2023-01-29T12:04:58;94573.34;;;1.11;85.41
9676;BME280;4876;42.656;23.292;2023-01-29T12:07:27;94563.88;;;0.94;86.13
9676;BME280;4876;42.656;23.292;2023-01-29T12:09:55;94565.63;;;1.16;86.41
9676;BME280;4876;42.656;23.292;2023-01-29T12:12:30;94570.34;;;1.19;85.38
9676;BME280;4876;42.656;23.292;2023-01-29T12:15:13;94557.72;;;1.27;84.88
9676;BME280;4876;42.656;23.292;2023-01-29T12:17:43;94536.66;;;0.92;85.62
9676;BME280;4876;42.656;23.292;2023-01-29T12:20:14;94558.41;;;1.18;86.12
9676;BME280;4876;42.656;23.292;2023-01-29T12:22:47;94566.31;;;1.33;85.00
9676;BME280;4876;42.656;23.292;2023-01-29T12:25:20;94528.16;;;0.96;84.73
9676;BME280;4876;42.656;23.292;2023-01-29T12:27:54;94556.38;;;1.20;84.70
9676;BME280;4876;42.656;23.292;2023-01-29T12:30:27;94567.84;;;1.29;84.34
9676;BME280;4876;42.656;23.292;2023-01-29T12:33:00;94562.13;;;1.27;84.49
9676;BME280;4876;42.656;23.292;2023-01-29T12:35:31;94565.75;;;1.26;84.86
9676;BME280;4876;42.656;23.292;2023-01-29T12:38:02;94571.09;;;0.92;85.29
9676;BME280;4876;42.656;23.292;2023-01-29T12:40:39;94573.16;;;0.90;86.21
9676;BME280;4876;42.656;23.292;2023-01-29T12:43:14;94561.69;;;1.08;86.63
9676;BME280;4876;42.656;23.292;2023-01-29T12:45:43;94564.38;;;1.18;86.19
9676;BME280;4876;42.656;23.292;2023-01-29T12:48:13;94554.50;;;1.15;85.44
9676;BME280;4876;42.656;23.292;2023-01-29T12:50:43;94567.19;;;1.44;85.78
9676;BME280;4876;42.656;23.292;2023-01-29T12:53:22;94571.16;;;1.51;83.94
9676;BME280;4876;42.656;23.292;2023-01-29T12:55:54;94570.41;;;1.29;84.29
9676;BME280;4876;42.656;23.292;2023-01-29T12:58:29;94566.16;;;1.13;84.91
9676;BME280;4876;42.656;23.292;2023-01-29T13:01:02;94563.41;;;1.24;84.87
9676;BME280;4876;42.656;23.292;2023-01-29T13:03:34;94569.06;;;0.94;85.85
9676;BME280;4876;42.656;23.292;2023-01-29T13:06:08;94571.69;;;0.99;85.78
9676;BME280;4876;42.656;23.292;2023-01-29T13:08:41;94561.97;;;1.12;85.84
9676;BME280;4876;42.656;23.292;2023-01-29T13:11:13;94559.38;;;1.12;85.47
9676;BME280;4876;42.656;23.292;2023-01-29T13:13:49;94570.50;;;0.85;85.36
9676;BME280;4876;42.656;23.292;2023-01-29T13:16:19;94534.72;;;0.77;86.48
9676;BME280;4876;42.656;23.292;2023-01-29T13:18:51;94553.47;;;0.89;86.21
9676;BME280;4876;42.656;23.292;2023-01-29T13:21:22;94560.06;;;0.75;86.51
9676;BME280;4876;42.656;23.292;2023-01-29T13:23:54;94567.34;;;0.78;86.86
9676;BME280;4876;42.656;23.292;2023-01-29T13:26:22;94545.00;;;0.72;86.78
9676;BME280;4876;42.656;23.292;2023-01-29T13:28:52;94559.75;;;0.98;85.68
9676;BME280;4876;42.656;23.292;2023-01-29T13:31:26;94560.66;;;1.09;85.34
9676;BME280;4876;42.656;23.292;2023-01-29T13:34:05;94569.47;;;0.86;85.16
9676;BME280;4876;42.656;23.292;2023-01-29T13:36:34;94576.78;;;0.89;85.58
9676;BME280;4876;42.656;23.292;2023-01-29T13:39:05;94578.19;;;0.75;85.71
9676;BME280;4876;42.656;23.292;2023-01-29T13:41:35;94584.13;;;0.53;87.15